sensor_id;sensor_type;location;lat;lon;timestamp;temperature;humidity
3994;DHT22;2011;48.238;13.948;2023-04-24T00:00:54;13.60;99.90
3994;DHT22;2011;48.238;13.948;2023-04-24T00:03:22;13.60;99.90
3994;DHT22;2011;48.238;13.948;2023-04-24T00:05:50;13.60;99.90
3994;DHT22;2011;48.238;13.948;2023-04-24T00:08:18;13.60;99.90
3994;DHT22;2011;48.238;13.948;2023-04-24T00:10:45;13.60;99.90
3994;DHT22;2011;48.238;13.948;2023-04-24T00:13:12;13.60;99.90
3994;DHT22;2011;48.238;13.948;2023-04-24T00:15:39;13.60;99.90
3994;DHT22;2011;48.238;13.948;2023-04-24T00:18:06;13.60;99.90
3994;DHT22;2011;48.238;13.948;2023-04-24T00:20:33;13.50;99.90
3994;DHT22;2011;48.238;13.948;2023-04-24T00:23:02;13.30;99.90
3994;DHT22;2011;48.238;13.948;2023-04-24T00:25:29;13.20;99.90
3994;DHT22;2011;48.238;13.948;2023-04-24T00:27:56;13.00;99.90
3994;DHT22;2011;48.238;13.948;2023-04-24T00:30:23;12.90;99.90
3994;DHT22;2011;48.238;13.948;2023-04-24T00:32:50;12.80;99.90
3994;DHT22;2011;48.238;13.948;2023-04-24T00:35:18;12.70;99.90
3994;DHT22;2011;48.238;13.948;2023-04-24T00:37:45;12.50;99.90
3994;DHT22;2011;48.238;13.948;2023-04-24T00:40:14;12.50;99.90
3994;DHT22;2011;48.238;13.948;2023-04-24T00:42:41;12.40;99.90
3994;DHT22;2011;48.238;13.948;2023-04-24T00:45:09;12.30;99.90
3994;DHT22;2011;48.238;13.948;2023-04-24T00:47:36;12.30;99.90
3994;DHT22;2011;48.238;13.948;2023-04-24T00:50:04;12.20;99.90
3994;DHT22;2011;48.238;13.948;2023-04-24T00:52:32;12.10;99.90
3994;DHT22;2011;48.238;13.948;2023-04-24T00:54:59;12.10;99.90
3994;DHT22;2011;48.238;13.948;2023-04-24T00:57:28;12.10;99.90
3994;DHT22;2011;48.238;13.948;2023-04-24T00:59:55;12.10;99.90
3994;DHT22;2011;48.238;13.948;2023-04-24T01:02:22;12.10;99.90
3994;DHT22;2011;48.238;13.948;2023-04-24T01:04:50;12.10;99.90
3994;DHT22;2011;48.238;13.948;2023-04-24T01:07:19;12.00;99.90
3994;DHT22;2011;48.238;13.948;2023-04-24T01:09:47;12.00;99.90
3994;DHT22;2011;48.238;13.948;2023-04-24T01:12:17;12.00;99.90
3994;DHT22;2011;48.238;13.948;2023-04-24T01:14:46;12.10;99.90
3994;DHT22;2011;48.238;13.948;2023-04-24T01:17:13;12.00;99.90
3994;DHT22;2011;48.238;13.948;2023-04-24T01:19:41;12.00;99.90
3994;DHT22;2011;48.238;13.948;2023-04-24T01:22:13;11.90;99.90
3994;DHT22;2011;48.238;13.948;2023-04-24T01:24:40;11.90;99.90
3994;DHT22;2011;48.238;13.948;2023-04-24T01:27:08;11.90;99.90
3994;DHT22;2011;48.238;13.948;2023-04-24T01:29:35;11.90;99.90
3994;DHT22;2011;48.238;13.948;2023-04-24T01:32:03;11.80;99.90
3994;DHT22;2011;48.238;13.948;2023-04-24T01:34:31;11.80;99.90
3994;DHT22;2011;48.238;13.948;2023-04-24T01:36:59;11.80;99.90
3994;DHT22;2011;48.238;13.948;2023-04-24T01:39:27;11.90;99.90
3994;DHT22;2011;48.238;13.948;2023-04-24T01:41:54;11.80;99.90
3994;DHT22;2011;48.238;13.948;2023-04-24T01:44:21;11.90;99.90
3994;DHT22;2011;48.238;13.948;2023-04-24T01:46:48;11.90;99.90
3994;DHT22;2011;48.238;13.948;2023-04-24T01:49:16;11.90;99.90
3994;DHT22;2011;48.238;13.948;2023-04-24T01:51:43;11.90;99.90
3994;DHT22;2011;48.238;13.948;2023-04-24T01:54:10;11.90;99.90
3994;DHT22;2011;48.238;13.948;2023-04-24T01:56:41;11.90;99.90
3994;DHT22;2011;48.238;13.948;2023-04-24T01:59:09;11.90;99.90
3994;DHT22;2011;48.238;13.948;2023-04-24T02:01:37;11.90;99.90
3994;DHT22;2011;48.238;13.948;2023-04-24T02:04:05;11.90;99.90
3994;DHT22;2011;48.238;13.948;2023-04-24T02:06:32;11.90;99.90
3994;DHT22;2011;48.238;13.948;2023-04-24T02:08:59;11.90;99.90
3994;DHT22;2011;48.238;13.948;2023-04-24T02:11:27;11.90;99.90
3994;DHT22;2011;48.238;13.948;2023-04-24T02:13:55;11.90;99.90
3994;DHT22;2011;48.238;13.948;2023-04-24T02:16:22;11.90;99.90
3994;DHT22;2011;48.238;13.948;2023-04-24T02:18:49;11.90;99.90
3994;DHT22;2011;48.238;13.948;2023-04-24T02:21:16;11.90;99.90
3994;DHT22;2011;48.238;13.948;2023-04-24T02:23:43;11.80;99.90
3994;DHT22;2011;48.238;13.948;2023-04-24T02:26:10;11.80;99.90
3994;DHT22;2011;48.238;13.948;2023-04-24T02:28:37;11.80;99.90
3994;DHT22;2011;48.238;13.948;2023-04-24T02:31:06;11.90;99.90
3994;DHT22;2011;48.238;13.948;2023-04-24T02:33:33;11.90;99.90
3994;DHT22;2011;48.238;13.948;2023-04-24T02:36:01;11.90;99.90
3994;DHT22;2011;48.238;13.948;2023-04-24T02:38:28;11.90;99.90
3994;DHT22;2011;48.238;13.948;2023-04-24T02:40:55;11.90;99.90
3994;DHT22;2011;48.238;13.948;2023-04-24T02:43:22;11.90;99.90
3994;DHT22;2011;48.238;13.948;2023-04-24T02:45:52;11.90;99.90
3994;DHT22;2011;48.238;13.948;2023-04-24T02:48:20;11.90;99.90
3994;DHT22;2011;48.238;13.948;2023-04-24T02:50:47;12.00;99.90
3994;DHT22;2011;48.238;13.948;2023-04-24T02:53:14;12.00;99.90
3994;DHT22;2011;48.238;13.948;2023-04-24T02:55:41;12.10;99.90
3994;DHT22;2011;48.238;13.948;2023-04-24T02:58:08;12.10;99.90
3994;DHT22;2011;48.238;13.948;2023-04-24T03:00:36;12.10;99.90
3994;DHT22;2011;48.238;13.948;2023-04-24T03:03:03;12.10;99.90
3994;DHT22;2011;48.238;13.948;2023-04-24T03:05:32;12.20;99.90
3994;DHT22;2011;48.238;13.948;2023-04-24T03:07:59;12.20;99.90
3994;DHT22;2011;48.238;13.948;2023-04-24T03:10:26;12.20;99.90
3994;DHT22;2011;48.238;13.948;2023-04-24T03:12:53;12.30;99.90
3994;DHT22;2011;48.238;13.948;2023-04-24T03:15:21;12.30;99.90
3994;DHT22;2011;48.238;13.948;2023-04-24T03:17:48;12.30;99.90
3994;DHT22;2011;48.238;13.948;2023-04-24T03:20:15;12.30;99.90
3994;DHT22;2011;48.238;13.948;2023-04-24T03:22:44;12.30;99.90
3994;DHT22;2011;48.238;13.948;2023-04-24T03:25:11;12.20;99.90
3994;DHT22;2011;48.238;13.948;2023-04-24T03:27:38;12.20;99.90
3994;DHT22;2011;48.238;13.948;2023-04-24T03:30:06;12.10;99.90
3994;DHT22;2011;48.238;13.948;2023-04-24T03:32:34;12.10;99.90
3994;DHT22;2011;48.238;13.948;2023-04-24T03:35:01;12.00;99.90
3994;DHT22;2011;48.238;13.948;2023-04-24T03:37:28;11.90;99.90
3994;DHT22;2011;48.238;13.948;2023-04-24T03:39:57;11.90;99.90
3994;DHT22;2011;48.238;13.948;2023-04-24T03:42:24;11.90;99.90
3994;DHT22;2011;48.238;13.948;2023-04-24T03:44:51;11.80;99.90
3994;DHT22;2011;48.238;13.948;2023-04-24T03:47:18;11.80;99.90
3994;DHT22;2011;48.238;13.948;2023-04-24T03:49:45;11.80;99.90
3994;DHT22;2011;48.238;13.948;2023-04-24T03:52:12;11.80;99.90
3994;DHT22;2011;48.238;13.948;2023-04-24T03:54:39;11.80;99.90
3994;DHT22;2011;48.238;13.948;2023-04-24T03:57:08;11.70;99.90
3994;DHT22;2011;48.238;13.948;2023-04-24T03:59:35;11.70;99.90
3994;DHT22;2011;48.238;13.948;2023-04-24T04:02:02;11.60;99.90
3994;DHT22;2011;48.238;13.948;2023-04-24T04:04:29;11.60;99.90
3994;DHT22;2011;48.238;13.948;2023-04-24T04:06:56;11.60;99.90
3994;DHT22;2011;48.238;13.948;2023-04-24T04:09:26;11.60;99.90
3994;DHT22;2011;48.238;13.948;2023-04-24T04:11:54;11.50;99.90
3994;DHT22;2011;48.238;13.948;2023-04-24T04:14:22;11.50;99.90
3994;DHT22;2011;48.238;13.948;2023-04-24T04:16:49;11.60;99.90
3994;DHT22;2011;48.238;13.948;2023-04-24T04:19:16;11.60;99.90
3994;DHT22;2011;48.238;13.948;2023-04-24T04:21:43;11.50;99.90
3994;DHT22;2011;48.238;13.948;2023-04-24T04:24:11;11.60;99.90
3994;DHT22;2011;48.238;13.948;2023-04-24T04:26:38;11.50;99.90
3994;DHT22;2011;48.238;13.948;2023-04-24T04:29:06;11.50;99.90
3994;DHT22;2011;48.238;13.948;2023-04-24T04:31:34;11.50;99.90
3994;DHT22;2011;48.238;13.948;2023-04-24T04:34:02;11.50;99.90
3994;DHT22;2011;48.238;13.948;2023-04-24T04:36:29;11.40;99.90
3994;DHT22;2011;48.238;13.948;2023-04-24T04:38:56;11.40;99.90
3994;DHT22;2011;48.238;13.948;2023-04-24T04:41:25;11.40;99.90
3994;DHT22;2011;48.238;13.948;2023-04-24T04:43:52;11.40;99.90
3994;DHT22;2011;48.238;13.948;2023-04-24T04:46:19;11.40;99.90
3994;DHT22;2011;48.238;13.948;2023-04-24T04:48:47;11.40;99.90
3994;DHT22;2011;48.238;13.948;2023-04-24T04:51:14;11.30;99.90
3994;DHT22;2011;48.238;13.948;2023-04-24T04:53:41;11.30;99.90
3994;DHT22;2011;48.238;13.948;2023-04-24T04:56:08;11.30;99.90
3994;DHT22;2011;48.238;13.948;2023-04-24T04:58:35;11.20;99.90
3994;DHT22;2011;48.238;13.948;2023-04-24T05:01:02;11.20;99.90
3994;DHT22;2011;48.238;13.948;2023-04-24T05:03:30;11.20;99.90
3994;DHT22;2011;48.238;13.948;2023-04-24T05:05:59;11.20;99.90
3994;DHT22;2011;48.238;13.948;2023-04-24T05:08:26;11.10;99.90
3994;DHT22;2011;48.238;13.948;2023-04-24T05:10:53;11.10;99.90
3994;DHT22;2011;48.238;13.948;2023-04-24T05:13:20;11.10;99.90
3994;DHT22;2011;48.238;13.948;2023-04-24T05:15:47;11.10;99.90
3994;DHT22;2011;48.238;13.948;2023-04-24T05:18:14;11.00;99.90
3994;DHT22;2011;48.238;13.948;2023-04-24T05:20:42;11.00;99.90
3994;DHT22;2011;48.238;13.948;2023-04-24T05:23:10;11.00;99.90
3994;DHT22;2011;48.238;13.948;2023-04-24T05:25:37;11.00;99.90
3994;DHT22;2011;48.238;13.948;2023-04-24T05:28:05;11.00;99.90
3994;DHT22;2011;48.238;13.948;2023-04-24T05:30:32;11.00;99.90
3994;DHT22;2011;48.238;13.948;2023-04-24T05:32:59;11.00;99.90
3994;DHT22;2011;48.238;13.948;2023-04-24T05:35:26;11.00;99.90
3994;DHT22;2011;48.238;13.948;2023-04-24T05:37:53;10.90;99.90
3994;DHT22;2011;48.238;13.948;2023-04-24T05:40:22;10.90;99.90
3994;DHT22;2011;48.238;13.948;2023-04-24T05:42:49;10.80;99.90
3994;DHT22;2011;48.238;13.948;2023-04-24T05:45:16;10.80;99.90
3994;DHT22;2011;48.238;13.948;2023-04-24T05:47:43;10.80;99.90
3994;DHT22;2011;48.238;13.948;2023-04-24T05:50:11;10.80;99.90
3994;DHT22;2011;48.238;13.948;2023-04-24T05:52:38;10.80;99.90
3994;DHT22;2011;48.238;13.948;2023-04-24T05:55:05;10.80;99.90
3994;DHT22;2011;48.238;13.948;2023-04-24T05:57:34;10.80;99.90
3994;DHT22;2011;48.238;13.948;2023-04-24T06:00:01;10.90;99.90
3994;DHT22;2011;48.238;13.948;2023-04-24T06:02:29;10.90;99.90
3994;DHT22;2011;48.238;13.948;2023-04-24T06:04:58;11.00;99.90
3994;DHT22;2011;48.238;13.948;2023-04-24T06:07:25;11.00;99.90
3994;DHT22;2011;48.238;13.948;2023-04-24T06:09:52;11.00;99.90
3994;DHT22;2011;48.238;13.948;2023-04-24T06:12:20;10.90;99.90
3994;DHT22;2011;48.238;13.948;2023-04-24T06:14:48;10.90;99.90
3994;DHT22;2011;48.238;13.948;2023-04-24T06:17:15;10.90;99.90
3994;DHT22;2011;48.238;13.948;2023-04-24T06:19:42;11.00;99.90
3994;DHT22;2011;48.238;13.948;2023-04-24T06:22:09;11.00;99.90
3994;DHT22;2011;48.238;13.948;2023-04-24T06:24:36;11.00;99.90
3994;DHT22;2011;48.238;13.948;2023-04-24T06:27:03;11.00;99.90
3994;DHT22;2011;48.238;13.948;2023-04-24T06:29:30;11.00;99.90
3994;DHT22;2011;48.238;13.948;2023-04-24T06:31:59;11.00;99.90
3994;DHT22;2011;48.238;13.948;2023-04-24T06:34:26;11.00;99.90
3994;DHT22;2011;48.238;13.948;2023-04-24T06:36:53;11.00;99.90
3994;DHT22;2011;48.238;13.948;2023-04-24T06:39:21;11.10;99.90
3994;DHT22;2011;48.238;13.948;2023-04-24T06:41:48;11.10;99.90
3994;DHT22;2011;48.238;13.948;2023-04-24T06:44:15;11.20;99.90
3994;DHT22;2011;48.238;13.948;2023-04-24T06:46:42;11.20;99.90
3994;DHT22;2011;48.238;13.948;2023-04-24T06:49:10;11.30;99.90
3994;DHT22;2011;48.238;13.948;2023-04-24T06:51:37;11.20;99.90
3994;DHT22;2011;48.238;13.948;2023-04-24T06:54:04;11.20;99.90
3994;DHT22;2011;48.238;13.948;2023-04-24T06:56:31;11.20;99.90
3994;DHT22;2011;48.238;13.948;2023-04-24T06:58:59;11.20;99.90
3994;DHT22;2011;48.238;13.948;2023-04-24T07:01:26;11.20;99.90
3994;DHT22;2011;48.238;13.948;2023-04-24T07:03:53;11.30;99.90
3994;DHT22;2011;48.238;13.948;2023-04-24T07:06:22;11.30;99.90
3994;DHT22;2011;48.238;13.948;2023-04-24T07:08:49;11.30;99.90
3994;DHT22;2011;48.238;13.948;2023-04-24T07:11:16;11.30;99.90
3994;DHT22;2011;48.238;13.948;2023-04-24T07:13:43;11.40;99.90
3994;DHT22;2011;48.238;13.948;2023-04-24T07:16:11;11.50;99.90
3994;DHT22;2011;48.238;13.948;2023-04-24T07:18:38;11.50;99.90
3994;DHT22;2011;48.238;13.948;2023-04-24T07:21:05;11.50;99.90
3994;DHT22;2011;48.238;13.948;2023-04-24T07:23:33;11.60;99.90
3994;DHT22;2011;48.238;13.948;2023-04-24T07:26:00;11.70;99.90
3994;DHT22;2011;48.238;13.948;2023-04-24T07:28:27;11.70;99.90
3994;DHT22;2011;48.238;13.948;2023-04-24T07:30:56;11.70;99.90
3994;DHT22;2011;48.238;13.948;2023-04-24T07:33:24;11.70;99.90
3994;DHT22;2011;48.238;13.948;2023-04-24T07:35:51;11.60;99.90
3994;DHT22;2011;48.238;13.948;2023-04-24T07:38:18;11.70;99.90
3994;DHT22;2011;48.238;13.948;2023-04-24T07:40:48;11.70;99.90
3994;DHT22;2011;48.238;13.948;2023-04-24T07:43:15;11.60;99.90
3994;DHT22;2011;48.238;13.948;2023-04-24T07:45:42;11.60;99.90
3994;DHT22;2011;48.238;13.948;2023-04-24T07:48:09;11.60;99.90
3994;DHT22;2011;48.238;13.948;2023-04-24T07:50:36;11.70;99.90
3994;DHT22;2011;48.238;13.948;2023-04-24T07:53:03;11.80;99.90
3994;DHT22;2011;48.238;13.948;2023-04-24T07:55:30;11.80;99.90
3994;DHT22;2011;48.238;13.948;2023-04-24T07:57:58;11.90;99.90
3994;DHT22;2011;48.238;13.948;2023-04-24T08:00:26;11.90;99.90
3994;DHT22;2011;48.238;13.948;2023-04-24T08:02:53;11.90;99.90
3994;DHT22;2011;48.238;13.948;2023-04-24T08:05:20;11.90;99.90
3994;DHT22;2011;48.238;13.948;2023-04-24T08:07:47;12.00;99.90
3994;DHT22;2011;48.238;13.948;2023-04-24T08:10:16;12.00;99.90
3994;DHT22;2011;48.238;13.948;2023-04-24T08:12:42;12.00;99.90
3994;DHT22;2011;48.238;13.948;2023-04-24T08:15:11;12.00;99.90
3994;DHT22;2011;48.238;13.948;2023-04-24T08:17:38;12.00;99.90
3994;DHT22;2011;48.238;13.948;2023-04-24T08:20:06;12.00;99.90
3994;DHT22;2011;48.238;13.948;2023-04-24T08:22:38;12.00;99.90
3994;DHT22;2011;48.238;13.948;2023-04-24T08:25:06;12.10;99.90
3994;DHT22;2011;48.238;13.948;2023-04-24T08:27:34;12.10;99.90
3994;DHT22;2011;48.238;13.948;2023-04-24T08:30:03;12.10;99.90
3994;DHT22;2011;48.238;13.948;2023-04-24T08:32:31;12.20;99.90
3994;DHT22;2011;48.238;13.948;2023-04-24T08:34:59;12.30;99.90
3994;DHT22;2011;48.238;13.948;2023-04-24T08:37:26;12.30;99.90
3994;DHT22;2011;48.238;13.948;2023-04-24T08:39:54;12.40;99.90
3994;DHT22;2011;48.238;13.948;2023-04-24T08:42:21;12.50;99.90
3994;DHT22;2011;48.238;13.948;2023-04-24T08:44:49;12.60;99.90
3994;DHT22;2011;48.238;13.948;2023-04-24T08:47:16;12.60;99.90
3994;DHT22;2011;48.238;13.948;2023-04-24T08:49:48;12.70;99.90
3994;DHT22;2011;48.238;13.948;2023-04-24T08:52:16;12.80;99.90
3994;DHT22;2011;48.238;13.948;2023-04-24T08:54:45;12.90;99.90
3994;DHT22;2011;48.238;13.948;2023-04-24T08:57:14;12.90;99.90
3994;DHT22;2011;48.238;13.948;2023-04-24T08:59:42;12.80;99.90
3994;DHT22;2011;48.238;13.948;2023-04-24T09:02:10;12.90;99.90
3994;DHT22;2011;48.238;13.948;2023-04-24T09:04:37;12.90;99.90
3994;DHT22;2011;48.238;13.948;2023-04-24T09:07:06;12.90;99.90
3994;DHT22;2011;48.238;13.948;2023-04-24T09:09:34;12.80;99.90
3994;DHT22;2011;48.238;13.948;2023-04-24T09:12:02;12.80;99.90
3994;DHT22;2011;48.238;13.948;2023-04-24T09:14:30;12.80;99.90
3994;DHT22;2011;48.238;13.948;2023-04-24T09:16:58;12.90;99.90
3994;DHT22;2011;48.238;13.948;2023-04-24T09:19:25;13.00;99.90
3994;DHT22;2011;48.238;13.948;2023-04-24T09:21:52;13.00;99.90
3994;DHT22;2011;48.238;13.948;2023-04-24T09:24:22;13.20;99.90
3994;DHT22;2011;48.238;13.948;2023-04-24T09:26:55;13.30;99.90
3994;DHT22;2011;48.238;13.948;2023-04-24T09:29:22;13.40;99.90
3994;DHT22;2011;48.238;13.948;2023-04-24T09:31:49;13.30;99.90
3994;DHT22;2011;48.238;13.948;2023-04-24T09:34:22;13.30;99.90
3994;DHT22;2011;48.238;13.948;2023-04-24T09:36:49;13.40;99.90
3994;DHT22;2011;48.238;13.948;2023-04-24T09:39:17;13.30;99.90
3994;DHT22;2011;48.238;13.948;2023-04-24T09:41:48;13.40;99.90
3994;DHT22;2011;48.238;13.948;2023-04-24T09:44:16;13.50;99.90
3994;DHT22;2011;48.238;13.948;2023-04-24T09:46:45;13.50;99.90
3994;DHT22;2011;48.238;13.948;2023-04-24T09:49:14;13.50;99.90
3994;DHT22;2011;48.238;13.948;2023-04-24T09:51:42;13.60;99.90
3994;DHT22;2011;48.238;13.948;2023-04-24T09:54:14;13.50;99.90
3994;DHT22;2011;48.238;13.948;2023-04-24T09:56:43;13.50;99.90
3994;DHT22;2011;48.238;13.948;2023-04-24T09:59:13;13.50;99.90
3994;DHT22;2011;48.238;13.948;2023-04-24T10:01:41;13.70;99.90
3994;DHT22;2011;48.238;13.948;2023-04-24T10:04:17;13.90;99.90
3994;DHT22;2011;48.238;13.948;2023-04-24T10:06:45;14.00;99.90
3994;DHT22;2011;48.238;13.948;2023-04-24T10:09:13;14.10;99.90
3994;DHT22;2011;48.238;13.948;2023-04-24T10:11:42;14.00;99.90
3994;DHT22;2011;48.238;13.948;2023-04-24T10:14:14;13.90;99.90
3994;DHT22;2011;48.238;13.948;2023-04-24T10:16:42;13.80;99.90
3994;DHT22;2011;48.238;13.948;2023-04-24T10:19:10;13.90;99.90
3994;DHT22;2011;48.238;13.948;2023-04-24T10:21:40;13.90;99.90
3994;DHT22;2011;48.238;13.948;2023-04-24T10:24:08;13.80;99.90
3994;DHT22;2011;48.238;13.948;2023-04-24T10:26:35;13.90;99.90
3994;DHT22;2011;48.238;13.948;2023-04-24T10:29:05;14.00;99.90
3994;DHT22;2011;48.238;13.948;2023-04-24T10:31:37;14.00;99.90
3994;DHT22;2011;48.238;13.948;2023-04-24T10:34:04;13.90;99.90
3994;DHT22;2011;48.238;13.948;2023-04-24T10:36:33;13.80;99.90
3994;DHT22;2011;48.238;13.948;2023-04-24T10:39:03;13.80;99.90
3994;DHT22;2011;48.238;13.948;2023-04-24T10:41:37;13.70;99.90
3994;DHT22;2011;48.238;13.948;2023-04-24T10:44:05;13.60;99.90
3994;DHT22;2011;48.238;13.948;2023-04-24T10:46:32;13.70;99.90
3994;DHT22;2011;48.238;13.948;2023-04-24T10:49:03;13.70;99.90
3994;DHT22;2011;48.238;13.948;2023-04-24T10:51:47;13.90;99.90
3994;DHT22;2011;48.238;13.948;2023-04-24T10:54:28;13.90;99.90
3994;DHT22;2011;48.238;13.948;2023-04-24T10:57:26;13.70;99.90
3994;DHT22;2011;48.238;13.948;2023-04-24T11:00:13;13.70;99.90
3994;DHT22;2011;48.238;13.948;2023-04-24T11:02:40;13.90;99.90
3994;DHT22;2011;48.238;13.948;2023-04-24T11:05:15;14.10;99.90
3994;DHT22;2011;48.238;13.948;2023-04-24T11:08:10;14.30;99.90
3994;DHT22;2011;48.238;13.948;2023-04-24T11:10:39;14.60;99.90
3994;DHT22;2011;48.238;13.948;2023-04-24T11:13:06;15.00;99.90
3994;DHT22;2011;48.238;13.948;2023-04-24T11:15:33;15.30;99.90
3994;DHT22;2011;48.238;13.948;2023-04-24T11:18:00;15.60;99.90
3994;DHT22;2011;48.238;13.948;2023-04-24T11:20:29;15.70;99.90
3994;DHT22;2011;48.238;13.948;2023-04-24T11:23:03;15.50;99.90
3994;DHT22;2011;48.238;13.948;2023-04-24T11:25:32;15.20;99.90
3994;DHT22;2011;48.238;13.948;2023-04-24T11:28:06;15.00;99.90
3994;DHT22;2011;48.238;13.948;2023-04-24T11:30:33;14.80;99.90
3994;DHT22;2011;48.238;13.948;2023-04-24T11:33:04;14.70;99.90
3994;DHT22;2011;48.238;13.948;2023-04-24T11:35:39;14.70;99.90
3994;DHT22;2011;48.238;13.948;2023-04-24T11:38:06;14.70;99.90
3994;DHT22;2011;48.238;13.948;2023-04-24T11:40:34;14.60;99.90
3994;DHT22;2011;48.238;13.948;2023-04-24T11:43:01;14.50;99.90
3994;DHT22;2011;48.238;13.948;2023-04-24T11:45:28;14.50;99.90
3994;DHT22;2011;48.238;13.948;2023-04-24T11:47:56;14.50;99.90
3994;DHT22;2011;48.238;13.948;2023-04-24T11:50:25;14.20;99.90
3994;DHT22;2011;48.238;13.948;2023-04-24T11:52:54;13.80;99.90
3994;DHT22;2011;48.238;13.948;2023-04-24T11:55:26;13.40;99.90
3994;DHT22;2011;48.238;13.948;2023-04-24T11:57:55;12.90;99.90
3994;DHT22;2011;48.238;13.948;2023-04-24T12:00:25;12.50;99.90
3994;DHT22;2011;48.238;13.948;2023-04-24T12:03:04;12.20;99.90
3994;DHT22;2011;48.238;13.948;2023-04-24T12:05:32;11.90;99.90
3994;DHT22;2011;48.238;13.948;2023-04-24T12:08:01;11.80;99.90
3994;DHT22;2011;48.238;13.948;2023-04-24T12:10:30;11.60;99.90
3994;DHT22;2011;48.238;13.948;2023-04-24T12:12:58;11.60;99.90
3994;DHT22;2011;48.238;13.948;2023-04-24T12:15:26;11.60;99.90
3994;DHT22;2011;48.238;13.948;2023-04-24T12:17:55;11.70;99.90
3994;DHT22;2011;48.238;13.948;2023-04-24T12:20:27;11.80;99.90
3994;DHT22;2011;48.238;13.948;2023-04-24T12:22:55;11.90;99.90
3994;DHT22;2011;48.238;13.948;2023-04-24T12:25:26;12.10;99.90
3994;DHT22;2011;48.238;13.948;2023-04-24T12:27:54;12.20;99.90
3994;DHT22;2011;48.238;13.948;2023-04-24T12:30:25;12.40;99.90
3994;DHT22;2011;48.238;13.948;2023-04-24T12:32:53;12.50;99.90
3994;DHT22;2011;48.238;13.948;2023-04-24T12:35:22;12.60;99.90
3994;DHT22;2011;48.238;13.948;2023-04-24T12:37:49;12.80;99.90
3994;DHT22;2011;48.238;13.948;2023-04-24T12:40:17;12.90;99.90
3994;DHT22;2011;48.238;13.948;2023-04-24T12:42:49;12.90;99.90
3994;DHT22;2011;48.238;13.948;2023-04-24T12:45:17;13.10;99.90
3994;DHT22;2011;48.238;13.948;2023-04-24T12:47:45;13.30;99.90
3994;DHT22;2011;48.238;13.948;2023-04-24T12:50:13;13.50;99.90
3994;DHT22;2011;48.238;13.948;2023-04-24T12:52:40;13.60;99.90
3994;DHT22;2011;48.238;13.948;2023-04-24T12:55:08;13.70;99.90
3994;DHT22;2011;48.238;13.948;2023-04-24T12:57:36;13.70;99.90
3994;DHT22;2011;48.238;13.948;2023-04-24T13:00:06;13.80;99.90
3994;DHT22;2011;48.238;13.948;2023-04-24T13:02:34;13.70;99.90
3994;DHT22;2011;48.238;13.948;2023-04-24T13:05:02;13.80;99.90
3994;DHT22;2011;48.238;13.948;2023-04-24T13:07:29;13.90;99.90
3994;DHT22;2011;48.238;13.948;2023-04-24T13:09:56;13.90;99.90
3994;DHT22;2011;48.238;13.948;2023-04-24T13:12:24;14.00;99.90
3994;DHT22;2011;48.238;13.948;2023-04-24T13:14:52;13.90;99.90
3994;DHT22;2011;48.238;13.948;2023-04-24T13:17:21;13.90;99.90
3994;DHT22;2011;48.238;13.948;2023-04-24T13:19:50;14.00;99.90
3994;DHT22;2011;48.238;13.948;2023-04-24T13:22:17;14.00;99.90
3994;DHT22;2011;48.238;13.948;2023-04-24T13:24:45;14.00;99.90
3994;DHT22;2011;48.238;13.948;2023-04-24T13:27:14;14.00;99.90
3994;DHT22;2011;48.238;13.948;2023-04-24T13:29:41;14.10;99.90
3994;DHT22;2011;48.238;13.948;2023-04-24T13:32:08;14.20;99.90
3994;DHT22;2011;48.238;13.948;2023-04-24T13:34:36;14.30;99.90
3994;DHT22;2011;48.238;13.948;2023-04-24T13:37:04;14.40;99.90
3994;DHT22;2011;48.238;13.948;2023-04-24T13:39:31;14.50;99.90
3994;DHT22;2011;48.238;13.948;2023-04-24T13:41:58;14.40;99.90
3994;DHT22;2011;48.238;13.948;2023-04-24T13:44:26;14.50;99.90
3994;DHT22;2011;48.238;13.948;2023-04-24T13:46:54;14.60;99.90
3994;DHT22;2011;48.238;13.948;2023-04-24T13:49:23;14.50;99.90
3994;DHT22;2011;48.238;13.948;2023-04-24T13:51:52;14.40;99.90
3994;DHT22;2011;48.238;13.948;2023-04-24T13:54:19;14.50;99.90
3994;DHT22;2011;48.238;13.948;2023-04-24T13:56:46;14.50;99.90
3994;DHT22;2011;48.238;13.948;2023-04-24T13:59:13;14.40;99.90
3994;DHT22;2011;48.238;13.948;2023-04-24T14:01:40;14.30;99.90
3994;DHT22;2011;48.238;13.948;2023-04-24T14:04:07;14.30;99.90
3994;DHT22;2011;48.238;13.948;2023-04-24T14:06:34;14.20;99.90
3994;DHT22;2011;48.238;13.948;2023-04-24T14:09:02;14.00;99.90
3994;DHT22;2011;48.238;13.948;2023-04-24T14:11:30;13.90;99.90
3994;DHT22;2011;48.238;13.948;2023-04-24T14:13:57;13.90;99.90
3994;DHT22;2011;48.238;13.948;2023-04-24T14:16:23;13.80;99.90
3994;DHT22;2011;48.238;13.948;2023-04-24T14:18:50;13.80;99.90
3994;DHT22;2011;48.238;13.948;2023-04-24T14:21:17;13.70;99.90
3994;DHT22;2011;48.238;13.948;2023-04-24T14:23:44;13.80;99.90
3994;DHT22;2011;48.238;13.948;2023-04-24T14:26:12;13.60;99.90
3994;DHT22;2011;48.238;13.948;2023-04-24T14:28:39;13.20;99.90
3994;DHT22;2011;48.238;13.948;2023-04-24T14:31:06;12.70;99.90
3994;DHT22;2011;48.238;13.948;2023-04-24T14:33:33;12.40;99.90
3994;DHT22;2011;48.238;13.948;2023-04-24T14:36:00;12.20;99.90
3994;DHT22;2011;48.238;13.948;2023-04-24T14:38:28;12.10;99.90
3994;DHT22;2011;48.238;13.948;2023-04-24T14:40:55;12.00;99.90
3994;DHT22;2011;48.238;13.948;2023-04-24T14:43:23;11.90;99.90
3994;DHT22;2011;48.238;13.948;2023-04-24T14:45:50;11.80;99.90
3994;DHT22;2011;48.238;13.948;2023-04-24T14:48:17;11.70;99.90
3994;DHT22;2011;48.238;13.948;2023-04-24T14:50:44;11.60;99.90
3994;DHT22;2011;48.238;13.948;2023-04-24T14:53:11;11.70;99.90
3994;DHT22;2011;48.238;13.948;2023-04-24T14:55:38;11.70;99.90
3994;DHT22;2011;48.238;13.948;2023-04-24T14:58:05;11.80;99.90
3994;DHT22;2011;48.238;13.948;2023-04-24T15:00:33;11.90;99.90
3994;DHT22;2011;48.238;13.948;2023-04-24T15:03:00;12.10;99.90
3994;DHT22;2011;48.238;13.948;2023-04-24T15:05:27;12.10;99.90
3994;DHT22;2011;48.238;13.948;2023-04-24T15:07:54;12.30;99.90
3994;DHT22;2011;48.238;13.948;2023-04-24T15:10:21;12.40;99.90
3994;DHT22;2011;48.238;13.948;2023-04-24T15:12:49;12.50;99.90
3994;DHT22;2011;48.238;13.948;2023-04-24T15:15:16;12.50;99.90
3994;DHT22;2011;48.238;13.948;2023-04-24T15:17:44;12.60;99.90
3994;DHT22;2011;48.238;13.948;2023-04-24T15:20:11;12.70;99.90
3994;DHT22;2011;48.238;13.948;2023-04-24T15:22:38;12.70;99.90
3994;DHT22;2011;48.238;13.948;2023-04-24T15:25:06;12.80;99.90
3994;DHT22;2011;48.238;13.948;2023-04-24T15:27:40;12.90;99.90
3994;DHT22;2011;48.238;13.948;2023-04-24T15:30:08;12.90;99.90
3994;DHT22;2011;48.238;13.948;2023-04-24T15:32:35;12.90;99.90
3994;DHT22;2011;48.238;13.948;2023-04-24T15:35:05;13.00;99.90
3994;DHT22;2011;48.238;13.948;2023-04-24T15:37:31;13.00;99.90
3994;DHT22;2011;48.238;13.948;2023-04-24T15:39:58;13.10;99.90
3994;DHT22;2011;48.238;13.948;2023-04-24T15:42:26;13.20;99.90
3994;DHT22;2011;48.238;13.948;2023-04-24T15:44:53;13.40;99.90
3994;DHT22;2011;48.238;13.948;2023-04-24T15:47:20;13.50;99.90
3994;DHT22;2011;48.238;13.948;2023-04-24T15:49:47;13.60;99.90